sensor_id;sensor_type;location;lat;lon;timestamp;temperature;humidity
1678;DHT22;6034;46.864;15.216;2024-03-02T07:16:24;7.80;99.90
1678;DHT22;6034;46.864;15.216;2024-03-02T07:18:56;7.90;99.90
1678;DHT22;6034;46.864;15.216;2024-03-02T07:21:24;7.90;99.90
1678;DHT22;6034;46.864;15.216;2024-03-02T07:23:52;7.90;99.90
1678;DHT22;6034;46.864;15.216;2024-03-02T07:26:19;8.00;99.90
1678;DHT22;6034;46.864;15.216;2024-03-02T07:28:46;8.00;99.90
1678;DHT22;6034;46.864;15.216;2024-03-02T07:31:15;8.00;99.90
1678;DHT22;6034;46.864;15.216;2024-03-02T07:33:45;8.10;99.90
1678;DHT22;6034;46.864;15.216;2024-03-02T07:36:13;8.10;99.90
1678;DHT22;6034;46.864;15.216;2024-03-02T07:38:40;8.00;99.90
1678;DHT22;6034;46.864;15.216;2024-03-02T07:41:08;8.00;99.90
1678;DHT22;6034;46.864;15.216;2024-03-02T07:43:37;8.00;99.90
1678;DHT22;6034;46.864;15.216;2024-03-02T07:46:04;8.00;99.90
1678;DHT22;6034;46.864;15.216;2024-03-02T07:48:31;8.10;99.90
1678;DHT22;6034;46.864;15.216;2024-03-02T07:51:00;8.20;99.90
1678;DHT22;6034;46.864;15.216;2024-03-02T07:53:28;8.20;99.90
1678;DHT22;6034;46.864;15.216;2024-03-02T07:55:56;8.30;99.90
1678;DHT22;6034;46.864;15.216;2024-03-02T07:58:28;8.30;99.90
1678;DHT22;6034;46.864;15.216;2024-03-02T08:00:56;8.30;99.90
1678;DHT22;6034;46.864;15.216;2024-03-02T08:03:24;8.50;99.90
1678;DHT22;6034;46.864;15.216;2024-03-02T08:05:51;8.50;99.90
1678;DHT22;6034;46.864;15.216;2024-03-02T08:08:20;8.60;99.90
1678;DHT22;6034;46.864;15.216;2024-03-02T08:10:47;8.80;99.90
1678;DHT22;6034;46.864;15.216;2024-03-02T08:13:15;8.90;99.90
1678;DHT22;6034;46.864;15.216;2024-03-02T08:15:42;9.00;99.90
1678;DHT22;6034;46.864;15.216;2024-03-02T08:18:09;9.00;99.90
1678;DHT22;6034;46.864;15.216;2024-03-02T08:20:37;8.90;99.90
1678;DHT22;6034;46.864;15.216;2024-03-02T08:23:05;9.00;99.90
1678;DHT22;6034;46.864;15.216;2024-03-02T08:25:34;9.00;99.90
1678;DHT22;6034;46.864;15.216;2024-03-02T08:28:01;9.10;99.90
1678;DHT22;6034;46.864;15.216;2024-03-02T08:30:28;9.10;99.90
1678;DHT22;6034;46.864;15.216;2024-03-02T08:32:56;9.20;99.90
1678;DHT22;6034;46.864;15.216;2024-03-02T08:35:26;9.30;99.90
1678;DHT22;6034;46.864;15.216;2024-03-02T08:37:54;9.30;99.90
1678;DHT22;6034;46.864;15.216;2024-03-02T08:40:22;9.20;99.90
1678;DHT22;6034;46.864;15.216;2024-03-02T08:42:51;9.40;99.90
1678;DHT22;6034;46.864;15.216;2024-03-02T08:45:19;9.30;99.90
1678;DHT22;6034;46.864;15.216;2024-03-02T08:47:47;9.30;99.90
1678;DHT22;6034;46.864;15.216;2024-03-02T08:50:15;9.40;99.90
1678;DHT22;6034;46.864;15.216;2024-03-02T08:52:43;9.40;99.90
1678;DHT22;6034;46.864;15.216;2024-03-02T08:55:10;9.20;99.90
1678;DHT22;6034;46.864;15.216;2024-03-02T08:57:39;9.30;99.90
1678;DHT22;6034;46.864;15.216;2024-03-02T09:00:10;9.20;99.90
1678;DHT22;6034;46.864;15.216;2024-03-02T09:02:38;8.90;99.90
1678;DHT22;6034;46.864;15.216;2024-03-02T09:05:06;9.00;99.90
1678;DHT22;6034;46.864;15.216;2024-03-02T09:07:34;9.20;99.90
1678;DHT22;6034;46.864;15.216;2024-03-02T09:10:01;9.40;99.90
1678;DHT22;6034;46.864;15.216;2024-03-02T09:12:29;9.40;99.90
1678;DHT22;6034;46.864;15.216;2024-03-02T09:14:56;9.30;99.90
1678;DHT22;6034;46.864;15.216;2024-03-02T09:17:25;9.20;99.90
1678;DHT22;6034;46.864;15.216;2024-03-02T09:19:52;9.40;99.90
1678;DHT22;6034;46.864;15.216;2024-03-02T09:22:20;9.60;99.90
1678;DHT22;6034;46.864;15.216;2024-03-02T09:24:49;9.70;99.90
1678;DHT22;6034;46.864;15.216;2024-03-02T09:27:16;9.70;99.90
1678;DHT22;6034;46.864;15.216;2024-03-02T09:29:43;9.70;99.90
1678;DHT22;6034;46.864;15.216;2024-03-02T09:32:13;9.70;99.90
1678;DHT22;6034;46.864;15.216;2024-03-02T09:34:42;9.80;99.90
1678;DHT22;6034;46.864;15.216;2024-03-02T09:37:10;9.80;99.90
1678;DHT22;6034;46.864;15.216;2024-03-02T09:39:37;9.90;99.90
1678;DHT22;6034;46.864;15.216;2024-03-02T09:42:05;10.10;99.90
1678;DHT22;6034;46.864;15.216;2024-03-02T09:44:33;10.20;99.90
1678;DHT22;6034;46.864;15.216;2024-03-02T09:47:01;10.20;99.90
1678;DHT22;6034;46.864;15.216;2024-03-02T09:49:28;10.10;99.90
1678;DHT22;6034;46.864;15.216;2024-03-02T09:51:57;10.10;99.90
1678;DHT22;6034;46.864;15.216;2024-03-02T09:54:25;10.30;99.90
1678;DHT22;6034;46.864;15.216;2024-03-02T09:56:53;10.00;99.90
1678;DHT22;6034;46.864;15.216;2024-03-02T09:59:20;10.00;99.90
1678;DHT22;6034;46.864;15.216;2024-03-02T10:01:58;10.10;99.90
1678;DHT22;6034;46.864;15.216;2024-03-02T10:04:26;10.50;99.90
1678;DHT22;6034;46.864;15.216;2024-03-02T10:07:11;10.40;99.90
1678;DHT22;6034;46.864;15.216;2024-03-02T10:09:38;10.50;99.90
1678;DHT22;6034;46.864;15.216;2024-03-02T10:12:07;10.30;99.90
1678;DHT22;6034;46.864;15.216;2024-03-02T10:14:35;9.80;99.90
1678;DHT22;6034;46.864;15.216;2024-03-02T10:17:04;10.10;99.90
1678;DHT22;6034;46.864;15.216;2024-03-02T10:19:32;10.40;99.90
1678;DHT22;6034;46.864;15.216;2024-03-02T10:22:01;10.60;99.90
1678;DHT22;6034;46.864;15.216;2024-03-02T10:24:37;10.80;99.90
1678;DHT22;6034;46.864;15.216;2024-03-02T10:27:09;10.90;99.90
1678;DHT22;6034;46.864;15.216;2024-03-02T10:29:37;10.80;99.90
1678;DHT22;6034;46.864;15.216;2024-03-02T10:32:07;10.80;99.90
1678;DHT22;6034;46.864;15.216;2024-03-02T10:34:36;11.00;99.90
1678;DHT22;6034;46.864;15.216;2024-03-02T10:37:04;10.70;99.90
1678;DHT22;6034;46.864;15.216;2024-03-02T10:39:32;10.80;99.90
1678;DHT22;6034;46.864;15.216;2024-03-02T10:42:04;10.80;99.90
1678;DHT22;6034;46.864;15.216;2024-03-02T10:44:32;11.00;99.90
1678;DHT22;6034;46.864;15.216;2024-03-02T10:47:01;10.80;99.90
1678;DHT22;6034;46.864;15.216;2024-03-02T10:49:30;11.10;99.90
1678;DHT22;6034;46.864;15.216;2024-03-02T10:51:58;11.30;99.90
1678;DHT22;6034;46.864;15.216;2024-03-02T10:54:25;11.20;99.90
1678;DHT22;6034;46.864;15.216;2024-03-02T10:56:57;11.40;99.90
1678;DHT22;6034;46.864;15.216;2024-03-02T10:59:31;11.50;99.90
1678;DHT22;6034;46.864;15.216;2024-03-02T11:02:00;11.70;99.90
1678;DHT22;6034;46.864;15.216;2024-03-02T11:04:30;11.80;99.90
1678;DHT22;6034;46.864;15.216;2024-03-02T11:07:00;12.00;99.90
1678;DHT22;6034;46.864;15.216;2024-03-02T11:09:30;12.10;99.90
1678;DHT22;6034;46.864;15.216;2024-03-02T11:12:03;12.00;99.90
1678;DHT22;6034;46.864;15.216;2024-03-02T11:14:32;12.00;99.90
1678;DHT22;6034;46.864;15.216;2024-03-02T11:17:03;11.90;99.90
1678;DHT22;6034;46.864;15.216;2024-03-02T11:19:32;11.90;99.90
1678;DHT22;6034;46.864;15.216;2024-03-02T11:22:01;12.10;99.90
1678;DHT22;6034;46.864;15.216;2024-03-02T11:24:30;12.20;99.90
1678;DHT22;6034;46.864;15.216;2024-03-02T11:27:00;12.20;99.90
1678;DHT22;6034;46.864;15.216;2024-03-02T11:29:56;11.90;99.90
1678;DHT22;6034;46.864;15.216;2024-03-02T11:32:23;12.00;99.90
1678;DHT22;6034;46.864;15.216;2024-03-02T11:34:51;12.30;99.90
1678;DHT22;6034;46.864;15.216;2024-03-02T11:37:19;11.90;99.90
1678;DHT22;6034;46.864;15.216;2024-03-02T11:39:49;12.20;99.90
1678;DHT22;6034;46.864;15.216;2024-03-02T11:42:17;12.40;99.90
1678;DHT22;6034;46.864;15.216;2024-03-02T11:44:46;12.40;99.90
1678;DHT22;6034;46.864;15.216;2024-03-02T11:47:16;12.70;99.90
1678;DHT22;6034;46.864;15.216;2024-03-02T11:49:45;12.70;99.90
1678;DHT22;6034;46.864;15.216;2024-03-02T11:52:14;12.60;99.90
1678;DHT22;6034;46.864;15.216;2024-03-02T11:54:44;12.80;99.90
1678;DHT22;6034;46.864;15.216;2024-03-02T11:57:15;12.80;99.90
1678;DHT22;6034;46.864;15.216;2024-03-02T11:59:43;12.90;99.90
1678;DHT22;6034;46.864;15.216;2024-03-02T12:02:19;12.80;99.90
1678;DHT22;6034;46.864;15.216;2024-03-02T12:04:49;12.70;99.90
1678;DHT22;6034;46.864;15.216;2024-03-02T12:07:20;12.80;99.90
1678;DHT22;6034;46.864;15.216;2024-03-02T12:09:49;12.60;99.90
1678;DHT22;6034;46.864;15.216;2024-03-02T12:12:17;12.80;99.90
1678;DHT22;6034;46.864;15.216;2024-03-02T12:14:51;12.90;99.90
1678;DHT22;6034;46.864;15.216;2024-03-02T12:17:20;12.80;99.90
1678;DHT22;6034;46.864;15.216;2024-03-02T12:19:48;13.10;99.90
1678;DHT22;6034;46.864;15.216;2024-03-02T12:22:15;13.10;99.90
1678;DHT22;6034;46.864;15.216;2024-03-02T12:24:43;13.20;99.90
1678;DHT22;6034;46.864;15.216;2024-03-02T12:27:12;13.20;99.90
1678;DHT22;6034;46.864;15.216;2024-03-02T12:29:39;12.80;99.90
1678;DHT22;6034;46.864;15.216;2024-03-02T12:32:07;12.70;99.90
1678;DHT22;6034;46.864;15.216;2024-03-02T12:34:38;12.50;99.90
1678;DHT22;6034;46.864;15.216;2024-03-02T12:37:05;12.50;99.90
1678;DHT22;6034;46.864;15.216;2024-03-02T12:39:32;12.40;99.90
1678;DHT22;6034;46.864;15.216;2024-03-02T12:42:02;12.70;99.90
1678;DHT22;6034;46.864;15.216;2024-03-02T12:44:29;12.60;99.90
1678;DHT22;6034;46.864;15.216;2024-03-02T12:46:57;12.40;99.90
1678;DHT22;6034;46.864;15.216;2024-03-02T12:49:24;12.30;99.90
1678;DHT22;6034;46.864;15.216;2024-03-02T12:51:54;12.20;99.90
1678;DHT22;6034;46.864;15.216;2024-03-02T12:54:23;12.30;99.90
1678;DHT22;6034;46.864;15.216;2024-03-02T12:56:51;12.20;99.90
1678;DHT22;6034;46.864;15.216;2024-03-02T12:59:20;12.40;99.90
1678;DHT22;6034;46.864;15.216;2024-03-02T13:01:51;12.40;99.90
1678;DHT22;6034;46.864;15.216;2024-03-02T13:04:22;12.40;99.90
1678;DHT22;6034;46.864;15.216;2024-03-02T13:06:51;12.40;99.90
1678;DHT22;6034;46.864;15.216;2024-03-02T13:09:20;12.40;99.90
1678;DHT22;6034;46.864;15.216;2024-03-02T13:11:48;12.30;99.90
1678;DHT22;6034;46.864;15.216;2024-03-02T13:14:15;12.30;99.90
1678;DHT22;6034;46.864;15.216;2024-03-02T13:16:44;12.40;99.90
1678;DHT22;6034;46.864;15.216;2024-03-02T13:19:13;12.40;99.90
1678;DHT22;6034;46.864;15.216;2024-03-02T13:21:40;12.30;99.90
1678;DHT22;6034;46.864;15.216;2024-03-02T13:24:08;12.30;99.90
1678;DHT22;6034;46.864;15.216;2024-03-02T13:26:37;12.30;99.90
1678;DHT22;6034;46.864;15.216;2024-03-02T13:29:06;12.30;99.90
1678;DHT22;6034;46.864;15.216;2024-03-02T13:31:34;12.30;99.90
1678;DHT22;6034;46.864;15.216;2024-03-02T13:34:02;12.40;99.90
1678;DHT22;6034;46.864;15.216;2024-03-02T13:36:29;12.40;99.90
1678;DHT22;6034;46.864;15.216;2024-03-02T13:38:58;12.30;99.90
1678;DHT22;6034;46.864;15.216;2024-03-02T13:41:26;12.30;99.90
1678;DHT22;6034;46.864;15.216;2024-03-02T13:43:55;12.40;99.90
1678;DHT22;6034;46.864;15.216;2024-03-02T13:46:22;12.40;99.90
1678;DHT22;6034;46.864;15.216;2024-03-02T13:48:49;12.30;99.90
1678;DHT22;6034;46.864;15.216;2024-03-02T13:51:17;12.10;99.90
1678;DHT22;6034;46.864;15.216;2024-03-02T13:53:44;12.20;99.90
1678;DHT22;6034;46.864;15.216;2024-03-02T13:56:12;12.10;99.90
1678;DHT22;6034;46.864;15.216;2024-03-02T13:58:39;12.10;99.90
1678;DHT22;6034;46.864;15.216;2024-03-02T14:01:08;12.20;99.90
1678;DHT22;6034;46.864;15.216;2024-03-02T14:03:36;12.20;99.90
1678;DHT22;6034;46.864;15.216;2024-03-02T14:06:04;12.20;99.90
1678;DHT22;6034;46.864;15.216;2024-03-02T14:08:32;12.20;99.90
1678;DHT22;6034;46.864;15.216;2024-03-02T14:11:01;12.20;99.90
1678;DHT22;6034;46.864;15.216;2024-03-02T14:13:29;12.20;99.90
1678;DHT22;6034;46.864;15.216;2024-03-02T14:15:56;12.20;99.90
1678;DHT22;6034;46.864;15.216;2024-03-02T14:18:25;12.20;99.90
1678;DHT22;6034;46.864;15.216;2024-03-02T14:20:52;12.20;99.90
1678;DHT22;6034;46.864;15.216;2024-03-02T14:23:19;12.30;99.90
1678;DHT22;6034;46.864;15.216;2024-03-02T14:25:47;12.20;99.90
1678;DHT22;6034;46.864;15.216;2024-03-02T14:28:14;12.30;99.90
1678;DHT22;6034;46.864;15.216;2024-03-02T14:30:42;12.30;99.90
1678;DHT22;6034;46.864;15.216;2024-03-02T14:33:09;12.30;99.90
1678;DHT22;6034;46.864;15.216;2024-03-02T14:35:39;12.40;99.90
1678;DHT22;6034;46.864;15.216;2024-03-02T14:38:07;12.50;99.90
1678;DHT22;6034;46.864;15.216;2024-03-02T14:40:34;12.50;99.90
1678;DHT22;6034;46.864;15.216;2024-03-02T14:43:03;12.60;99.90
1678;DHT22;6034;46.864;15.216;2024-03-02T14:45:30;12.60;99.90
1678;DHT22;6034;46.864;15.216;2024-03-02T14:47:58;12.50;99.90
1678;DHT22;6034;46.864;15.216;2024-03-02T14:50:25;12.50;99.90
1678;DHT22;6034;46.864;15.216;2024-03-02T14:52:54;12.50;99.90
1678;DHT22;6034;46.864;15.216;2024-03-02T14:55:23;12.40;99.90
1678;DHT22;6034;46.864;15.216;2024-03-02T14:57:50;12.40;99.90
1678;DHT22;6034;46.864;15.216;2024-03-02T15:00:18;12.30;99.90
1678;DHT22;6034;46.864;15.216;2024-03-02T15:02:46;12.30;99.90
1678;DHT22;6034;46.864;15.216;2024-03-02T15:05:14;12.30;99.90
1678;DHT22;6034;46.864;15.216;2024-03-02T15:07:41;12.20;99.90
1678;DHT22;6034;46.864;15.216;2024-03-02T15:10:10;12.20;99.90
1678;DHT22;6034;46.864;15.216;2024-03-02T15:12:37;12.20;99.90
1678;DHT22;6034;46.864;15.216;2024-03-02T15:15:05;12.20;99.90
1678;DHT22;6034;46.864;15.216;2024-03-02T15:17:33;12.20;99.90
1678;DHT22;6034;46.864;15.216;2024-03-02T15:20:00;12.10;99.90
1678;DHT22;6034;46.864;15.216;2024-03-02T15:22:27;12.20;99.90
1678;DHT22;6034;46.864;15.216;2024-03-02T15:24:54;12.20;99.90
1678;DHT22;6034;46.864;15.216;2024-03-02T15:27:23;12.10;99.90
1678;DHT22;6034;46.864;15.216;2024-03-02T15:29:53;12.10;99.90
1678;DHT22;6034;46.864;15.216;2024-03-02T15:32:21;12.10;99.90
1678;DHT22;6034;46.864;15.216;2024-03-02T15:34:48;12.10;99.90
1678;DHT22;6034;46.864;15.216;2024-03-02T15:37:15;12.10;99.90
1678;DHT22;6034;46.864;15.216;2024-03-02T15:39:43;12.00;99.90
1678;DHT22;6034;46.864;15.216;2024-03-02T15:42:11;12.10;99.90
1678;DHT22;6034;46.864;15.216;2024-03-02T15:44:40;12.10;99.90
1678;DHT22;6034;46.864;15.216;2024-03-02T15:47:08;12.10;99.90
1678;DHT22;6034;46.864;15.216;2024-03-02T15:49:35;12.10;99.90
1678;DHT22;6034;46.864;15.216;2024-03-02T15:52:03;12.10;99.90
1678;DHT22;6034;46.864;15.216;2024-03-02T15:54:30;12.20;99.90
1678;DHT22;6034;46.864;15.216;2024-03-02T15:56:58;12.10;99.90
1678;DHT22;6034;46.864;15.216;2024-03-02T15:59:25;12.00;99.90
1678;DHT22;6034;46.864;15.216;2024-03-02T16:01:54;12.00;99.90
1678;DHT22;6034;46.864;15.216;2024-03-02T16:04:23;12.00;99.90
1678;DHT22;6034;46.864;15.216;2024-03-02T16:06:50;12.00;99.90
1678;DHT22;6034;46.864;15.216;2024-03-02T16:09:18;12.00;99.90
1678;DHT22;6034;46.864;15.216;2024-03-02T16:11:45;12.00;99.90
1678;DHT22;6034;46.864;15.216;2024-03-02T16:14:14;11.90;99.90
1678;DHT22;6034;46.864;15.216;2024-03-02T16:16:42;12.00;99.90
1678;DHT22;6034;46.864;15.216;2024-03-02T16:19:11;11.90;99.90
1678;DHT22;6034;46.864;15.216;2024-03-02T16:21:38;11.80;99.90
1678;DHT22;6034;46.864;15.216;2024-03-02T16:24:06;11.80;99.90
1678;DHT22;6034;46.864;15.216;2024-03-02T16:26:33;11.80;99.90
1678;DHT22;6034;46.864;15.216;2024-03-02T16:29:00;11.80;99.90
1678;DHT22;6034;46.864;15.216;2024-03-02T16:31:27;11.80;99.90
1678;DHT22;6034;46.864;15.216;2024-03-02T16:33:55;11.70;99.90
1678;DHT22;6034;46.864;15.216;2024-03-02T16:36:24;11.70;99.90
1678;DHT22;6034;46.864;15.216;2024-03-02T16:38:53;11.70;99.90
1678;DHT22;6034;46.864;15.216;2024-03-02T16:41:22;11.70;99.90
1678;DHT22;6034;46.864;15.216;2024-03-02T16:43:49;11.90;99.90
1678;DHT22;6034;46.864;15.216;2024-03-02T16:46:17;11.90;99.90
1678;DHT22;6034;46.864;15.216;2024-03-02T16:48:46;11.90;99.90
1678;DHT22;6034;46.864;15.216;2024-03-02T16:51:14;11.80;99.90
1678;DHT22;6034;46.864;15.216;2024-03-02T16:53:43;11.90;99.90
1678;DHT22;6034;46.864;15.216;2024-03-02T16:56:11;11.90;99.90
1678;DHT22;6034;46.864;15.216;2024-03-02T16:58:38;11.90;99.90
1678;DHT22;6034;46.864;15.216;2024-03-02T17:01:06;11.90;99.90
1678;DHT22;6034;46.864;15.216;2024-03-02T17:03:33;11.90;99.90
1678;DHT22;6034;46.864;15.216;2024-03-02T17:06:00;11.80;99.90
1678;DHT22;6034;46.864;15.216;2024-03-02T17:08:28;11.80;99.90
1678;DHT22;6034;46.864;15.216;2024-03-02T17:10:57;11.80;99.90
1678;DHT22;6034;46.864;15.216;2024-03-02T17:13:24;11.80;99.90
1678;DHT22;6034;46.864;15.216;2024-03-02T17:15:52;11.70;99.90
1678;DHT22;6034;46.864;15.216;2024-03-02T17:18:20;11.80;99.90
1678;DHT22;6034;46.864;15.216;2024-03-02T17:20:48;11.80;99.90
1678;DHT22;6034;46.864;15.216;2024-03-02T17:23:16;11.80;99.90
1678;DHT22;6034;46.864;15.216;2024-03-02T17:25:44;11.80;99.90
1678;DHT22;6034;46.864;15.216;2024-03-02T17:28:24;11.80;99.90
1678;DHT22;6034;46.864;15.216;2024-03-02T17:30:53;11.80;99.90
1678;DHT22;6034;46.864;15.216;2024-03-02T17:33:21;11.80;99.90
1678;DHT22;6034;46.864;15.216;2024-03-02T17:35:48;11.70;99.90
1678;DHT22;6034;46.864;15.216;2024-03-02T17:38:16;11.70;99.90
1678;DHT22;6034;46.864;15.216;2024-03-02T17:40:43;11.70;99.90
1678;DHT22;6034;46.864;15.216;2024-03-02T17:43:11;11.60;99.90
1678;DHT22;6034;46.864;15.216;2024-03-02T17:45:43;11.40;99.90
1678;DHT22;6034;46.864;15.216;2024-03-02T17:48:11;11.40;99.90
1678;DHT22;6034;46.864;15.216;2024-03-02T17:50:38;11.50;99.90
1678;DHT22;6034;46.864;15.216;2024-03-02T17:53:06;11.40;99.90
1678;DHT22;6034;46.864;15.216;2024-03-02T17:55:34;11.40;99.90
1678;DHT22;6034;46.864;15.216;2024-03-02T17:58:03;11.40;99.90
1678;DHT22;6034;46.864;15.216;2024-03-02T18:00:31;11.40;99.90
1678;DHT22;6034;46.864;15.216;2024-03-02T18:03:00;11.30;99.90
1678;DHT22;6034;46.864;15.216;2024-03-02T18:05:28;11.20;99.90
1678;DHT22;6034;46.864;15.216;2024-03-02T18:07:55;11.20;99.90
1678;DHT22;6034;46.864;15.216;2024-03-02T18:10:23;11.20;99.90
1678;DHT22;6034;46.864;15.216;2024-03-02T18:12:50;11.20;99.90
1678;DHT22;6034;46.864;15.216;2024-03-02T18:15:17;11.20;99.90
1678;DHT22;6034;46.864;15.216;2024-03-02T18:17:46;11.10;99.90
1678;DHT22;6034;46.864;15.216;2024-03-02T18:20:15;11.10;99.90
1678;DHT22;6034;46.864;15.216;2024-03-02T18:22:42;11.10;99.90
1678;DHT22;6034;46.864;15.216;2024-03-02T18:25:10;11.20;99.90
1678;DHT22;6034;46.864;15.216;2024-03-02T18:27:37;11.10;99.90
1678;DHT22;6034;46.864;15.216;2024-03-02T18:30:07;11.00;99.90
1678;DHT22;6034;46.864;15.216;2024-03-02T18:32:37;11.00;99.90
1678;DHT22;6034;46.864;15.216;2024-03-02T18:35:06;11.00;99.90
1678;DHT22;6034;46.864;15.216;2024-03-02T18:37:36;10.80;99.90
1678;DHT22;6034;46.864;15.216;2024-03-02T18:40:04;10.80;99.90
1678;DHT22;6034;46.864;15.216;2024-03-02T18:42:32;10.80;99.90
1678;DHT22;6034;46.864;15.216;2024-03-02T18:44:59;10.90;99.90
1678;DHT22;6034;46.864;15.216;2024-03-02T18:47:29;10.90;99.90
1678;DHT22;6034;46.864;15.216;2024-03-02T18:49:56;10.90;99.90
1678;DHT22;6034;46.864;15.216;2024-03-02T18:52:24;10.80;99.90
1678;DHT22;6034;46.864;15.216;2024-03-02T18:54:53;10.70;99.90
1678;DHT22;6034;46.864;15.216;2024-03-02T18:57:20;10.40;99.90
1678;DHT22;6034;46.864;15.216;2024-03-02T18:59:49;10.40;99.90
1678;DHT22;6034;46.864;15.216;2024-03-02T19:02:16;10.40;99.90
1678;DHT22;6034;46.864;15.216;2024-03-02T19:04:43;10.40;99.90
1678;DHT22;6034;46.864;15.216;2024-03-02T19:07:13;10.40;99.90
1678;DHT22;6034;46.864;15.216;2024-03-02T19:09:41;10.50;99.90
1678;DHT22;6034;46.864;15.216;2024-03-02T19:12:10;10.50;99.90
1678;DHT22;6034;46.864;15.216;2024-03-02T19:14:37;10.40;99.90
1678;DHT22;6034;46.864;15.216;2024-03-02T19:17:04;10.40;99.90
1678;DHT22;6034;46.864;15.216;2024-03-02T19:19:32;10.40;99.90
1678;DHT22;6034;46.864;15.216;2024-03-02T19:21:59;10.40;99.90
1678;DHT22;6034;46.864;15.216;2024-03-02T19:24:27;10.30;99.90
1678;DHT22;6034;46.864;15.216;2024-03-02T19:26:54;10.30;99.90
1678;DHT22;6034;46.864;15.216;2024-03-02T19:29:23;10.30;99.90
1678;DHT22;6034;46.864;15.216;2024-03-02T19:31:54;10.30;99.90
1678;DHT22;6034;46.864;15.216;2024-03-02T19:34:23;10.20;99.90
1678;DHT22;6034;46.864;15.216;2024-03-02T19:36:49;10.20;99.90
1678;DHT22;6034;46.864;15.216;2024-03-02T19:39:17;10.20;99.90
1678;DHT22;6034;46.864;15.216;2024-03-02T19:41:49;10.20;99.90
1678;DHT22;6034;46.864;15.216;2024-03-02T19:44:17;10.00;99.90
1678;DHT22;6034;46.864;15.216;2024-03-02T19:46:45;10.10;99.90
1678;DHT22;6034;46.864;15.216;2024-03-02T19:49:13;10.20;99.90
1678;DHT22;6034;46.864;15.216;2024-03-02T19:51:41;10.00;99.90
1678;DHT22;6034;46.864;15.216;2024-03-02T19:54:08;10.00;99.90
1678;DHT22;6034;46.864;15.216;2024-03-02T19:56:36;10.00;99.90
1678;DHT22;6034;46.864;15.216;2024-03-02T19:59:04;10.10;99.90
1678;DHT22;6034;46.864;15.216;2024-03-02T20:01:31;10.10;99.90
1678;DHT22;6034;46.864;15.216;2024-03-02T20:04:00;10.10;99.90
1678;DHT22;6034;46.864;15.216;2024-03-02T20:06:28;10.00;99.90
1678;DHT22;6034;46.864;15.216;2024-03-02T20:08:56;10.00;99.90
1678;DHT22;6034;46.864;15.216;2024-03-02T20:11:23;10.10;99.90
1678;DHT22;6034;46.864;15.216;2024-03-02T20:13:51;10.10;99.90
1678;DHT22;6034;46.864;15.216;2024-03-02T20:16:18;10.00;99.90
1678;DHT22;6034;46.864;15.216;2024-03-02T20:18:45;10.00;99.90
1678;DHT22;6034;46.864;15.216;2024-03-02T20:21:14;10.00;99.90
1678;DHT22;6034;46.864;15.216;2024-03-02T20:23:41;10.00;99.90
1678;DHT22;6034;46.864;15.216;2024-03-02T20:26:08;10.00;99.90
1678;DHT22;6034;46.864;15.216;2024-03-02T20:28:36;10.00;99.90
1678;DHT22;6034;46.864;15.216;2024-03-02T20:31:03;10.00;99.90
1678;DHT22;6034;46.864;15.216;2024-03-02T20:33:31;10.00;99.90
1678;DHT22;6034;46.864;15.216;2024-03-02T20:35:58;9.80;99.90
1678;DHT22;6034;46.864;15.216;2024-03-02T20:38:29;9.80;99.90
1678;DHT22;6034;46.864;15.216;2024-03-02T20:40:56;9.80;99.90
1678;DHT22;6034;46.864;15.216;2024-03-02T20:43:24;9.90;99.90
1678;DHT22;6034;46.864;15.216;2024-03-02T20:45:51;9.70;99.90
1678;DHT22;6034;46.864;15.216;2024-03-02T20:48:18;9.80;99.90
1678;DHT22;6034;46.864;15.216;2024-03-02T20:50:46;9.90;99.90
1678;DHT22;6034;46.864;15.216;2024-03-02T20:53:15;9.90;99.90
1678;DHT22;6034;46.864;15.216;2024-03-02T20:55:46;9.90;99.90
1678;DHT22;6034;46.864;15.216;2024-03-02T20:58:13;10.00;99.90
1678;DHT22;6034;46.864;15.216;2024-03-02T21:00:41;9.90;99.90
1678;DHT22;6034;46.864;15.216;2024-03-02T21:03:08;9.60;99.90
1678;DHT22;6034;46.864;15.216;2024-03-02T21:05:35;9.60;99.90
1678;DHT22;6034;46.864;15.216;2024-03-02T21:08:03;9.80;99.90
1678;DHT22;6034;46.864;15.216;2024-03-02T21:10:31;9.80;99.90
1678;DHT22;6034;46.864;15.216;2024-03-02T21:13:00;9.80;99.90
1678;DHT22;6034;46.864;15.216;2024-03-02T21:15:28;9.80;99.90
1678;DHT22;6034;46.864;15.216;2024-03-02T21:17:55;9.80;99.90
1678;DHT22;6034;46.864;15.216;2024-03-02T21:20:27;9.80;99.90
1678;DHT22;6034;46.864;15.216;2024-03-02T21:22:54;9.70;99.90
1678;DHT22;6034;46.864;15.216;2024-03-02T21:25:22;9.70;99.90
1678;DHT22;6034;46.864;15.216;2024-03-02T21:27:52;9.80;99.90
1678;DHT22;6034;46.864;15.216;2024-03-02T21:30:21;9.70;99.90
1678;DHT22;6034;46.864;15.216;2024-03-02T21:32:51;9.60;99.90
1678;DHT22;6034;46.864;15.216;2024-03-02T21:35:19;9.60;99.90
1678;DHT22;6034;46.864;15.216;2024-03-02T21:37:46;9.60;99.90
1678;DHT22;6034;46.864;15.216;2024-03-02T21:40:14;9.50;99.90
1678;DHT22;6034;46.864;15.216;2024-03-02T21:42:42;9.60;99.90
1678;DHT22;6034;46.864;15.216;2024-03-02T21:45:10;9.60;99.90
1678;DHT22;6034;46.864;15.216;2024-03-02T21:47:39;9.60;99.90
1678;DHT22;6034;46.864;15.216;2024-03-02T21:50:07;9.70;99.90
1678;DHT22;6034;46.864;15.216;2024-03-02T21:52:35;9.70;99.90
1678;DHT22;6034;46.864;15.216;2024-03-02T21:55:02;9.60;99.90
1678;DHT22;6034;46.864;15.216;2024-03-02T21:57:30;9.70;99.90
1678;DHT22;6034;46.864;15.216;2024-03-02T22:00:00;9.70;99.90
1678;DHT22;6034;46.864;15.216;2024-03-02T22:02:28;9.60;99.90
1678;DHT22;6034;46.864;15.216;2024-03-02T22:04:57;9.60;99.90
1678;DHT22;6034;46.864;15.216;2024-03-02T22:07:26;9.60;99.90
1678;DHT22;6034;46.864;15.216;2024-03-02T22:09:53;9.60;99.90
1678;DHT22;6034;46.864;15.216;2024-03-02T22:12:22;9.60;99.90
1678;DHT22;6034;46.864;15.216;2024-03-02T22:14:49;9.50;99.90
1678;DHT22;6034;46.864;15.216;2024-03-02T22:17:17;9.40;99.90
1678;DHT22;6034;46.864;15.216;2024-03-02T22:19:44;9.40;99.90
1678;DHT22;6034;46.864;15.216;2024-03-02T22:22:13;9.50;99.90
1678;DHT22;6034;46.864;15.216;2024-03-02T22:24:41;9.50;99.90
1678;DHT22;6034;46.864;15.216;2024-03-02T22:27:08;9.50;99.90
1678;DHT22;6034;46.864;15.216;2024-03-02T22:29:36;9.50;99.90
1678;DHT22;6034;46.864;15.216;2024-03-02T22:32:05;9.40;99.90
1678;DHT22;6034;46.864;15.216;2024-03-02T22:34:32;9.40;99.90
1678;DHT22;6034;46.864;15.216;2024-03-02T22:37:00;9.40;99.90
1678;DHT22;6034;46.864;15.216;2024-03-02T22:39:29;9.40;99.90
1678;DHT22;6034;46.864;15.216;2024-03-02T22:41:56;9.40;99.90
1678;DHT22;6034;46.864;15.216;2024-03-02T22:44:24;9.40;99.90
1678;DHT22;6034;46.864;15.216;2024-03-02T22:46:52;9.30;99.90
1678;DHT22;6034;46.864;15.216;2024-03-02T22:49:20;9.30;99.90
1678;DHT22;6034;46.864;15.216;2024-03-02T22:51:48;9.20;99.90
1678;DHT22;6034;46.864;15.216;2024-03-02T22:54:15;9.00;99.90
1678;DHT22;6034;46.864;15.216;2024-03-02T22:56:44;9.20;99.90
1678;DHT22;6034;46.864;15.216;2024-03-02T22:59:12;9.20;99.90
1678;DHT22;6034;46.864;15.216;2024-03-02T23:01:40;9.10;99.90
1678;DHT22;6034;46.864;15.216;2024-03-02T23:04:09;9.10;99.90
1678;DHT22;6034;46.864;15.216;2024-03-02T23:06:36;8.90;99.90
1678;DHT22;6034;46.864;15.216;2024-03-02T23:09:04;8.90;99.90
1678;DHT22;6034;46.864;15.216;2024-03-02T23:11:31;8.80;99.90